Texanna, Oklahoma
Current Conditions -  °F | °C
As of 8:18 AM on Friday 31 Oct 2014 (Local Time) from KMKO Reporting Station
Broken Clouds Broken Clouds  
Wind Chill: 42°   Ceiling: 2500
Heat Index: 48°   Visibility: 10mi
Dew Point: 41°   Wind: 15mph
Humidity: 77%   Direction: 350°N
Pressure: 30.34"   Gusts: NA
Location:  35.4498°N, 95.4869°W
Report Text: KMKO 311318Z AUTO 35013KT 10SM BKN025 09/05 A3034 RMK AO2 T00890050
Loading
Personal Weather Stations






























Interactive Weather Map
Tropical Storm Tracking
New forecast layout! Learn more

10-Day Weather Forecast

Advertisements
Track Severe Weather on mobile